Aviation Digital Data Service (ADDS)

Output produced by TAFs form (1148 UTC 27 May 2017)
found at http://www.aviationweather.gov/adds/tafs/
 
METAR text: ZSAM 271100Z 08004MPS CAVOK 25/18 Q1010 NOSIG
Conditions at: ZSAM (XIAMEN , CN) observed 1100 UTC 27 May 2017
Temperature: 25.0°C (77°F)
Dewpoint: 18.0°C (64°F) [RH = 65%]
Pressure (altimeter): 29.82 inches Hg (1010.0 mb)
Winds: from the E (80 degrees) at 9 MPH (8 knots; 4.2 m/s)
Visibility: 6 or more miles (10+ km)
Ceiling: ceiling and visibility are OK
Clouds: unknown
Weather: no significant weather observed at this time

Forecast for: ZSAM (XIAMEN , CN)
Text: TAF ZSAM 270904Z 2712/2812 07004G09MPS 6000 SCT030 TX30/2806Z TN23/2721Z
Forecast period: 1200 UTC 27 May 2017 to 1200 UTC 28 May 2017
Forecast type: FROM: standard forecast or significant change
Winds: from the ENE (70 degrees) at 9 MPH (8 knots; 4.2 m/s)
gusting to 20 MPH (17 knots; 8.8 m/s)
Visibility: 4 miles (6 km)
Clouds: scattered clouds at 3000 feet AGL
Weather: no significant weather forecast for this period